Time;durP1;ratioP1;P1;durP2;ratioP2;P2;SDS_P1;SDS_P2;PMS_P1;PMS_P2;Temp;Humidity;BMP_temperature;BMP_pressure;BME280_temperature;BME280_humidity;BME280_pressure;Samples;Min_cycle;Max_cycle;Signal;HPM_P1;HPM_P2
2021/11/05 00:01:47;;;;;;;5.43;2.83;;;;;;;;;;4836361;29;20038;-77
2021/11/05 00:04:13;;;;;;;5.00;2.90;;;;;;;;;;4836267;29;20045;-78
2021/11/05 00:06:38;;;;;;;5.07;3.50;;;;;;;;;;4852896;29;20109;-78
2021/11/05 00:09:04;;;;;;;5.10;2.78;;;;;;;;;;4852925;29;20037;-78
2021/11/05 00:11:30;;;;;;;5.72;3.15;;;;;;;;;;4852905;29;20033;-78
2021/11/05 00:13:55;;;;;;;4.43;2.67;;;;;;;;;;4852688;29;20079;-79
2021/11/05 00:16:20;;;;;;;5.20;3.17;;;;;;;;;;4836259;29;20029;-79
2021/11/05 00:18:46;;;;;;;5.47;2.85;;;;;;;;;;4836150;29;20056;-77
2021/11/05 00:21:11;;;;;;;5.63;3.03;;;;;;;;;;4852830;29;20042;-78
2021/11/05 00:23:37;;;;;;;5.97;3.08;;;;;;;;;;4852421;29;20056;-78
2021/11/05 00:26:03;;;;;;;6.72;3.22;;;;;;;;;;4852812;29;20041;-78
2021/11/05 00:28:28;;;;;;;4.00;2.50;;;;;;;;;;4836143;29;20061;-78
2021/11/05 00:30:54;;;;;;;5.88;2.40;;;;;;;;;;4835871;29;20057;-76
2021/11/05 00:33:19;;;;;;;5.00;2.67;;;;;;;;;;4835952;29;20107;-78
2021/11/05 00:35:44;;;;;;;4.82;2.53;;;;;;;;;;4852495;29;20042;-76
2021/11/05 00:38:10;;;;;;;5.38;2.45;;;;;;;;;;4852266;29;20101;-76
2021/11/05 00:40:35;;;;;;;4.55;2.30;;;;;;;;;;4852446;29;20086;-76
2021/11/05 00:43:01;;;;;;;6.18;2.22;;;;;;;;;;4835643;29;20057;-75
2021/11/05 00:45:26;;;;;;;4.90;2.67;;;;;;;;;;4836181;29;20044;-75
2021/11/05 00:47:52;;;;;;;4.95;2.42;;;;;;;;;;4835777;29;20045;-76
2021/11/05 00:50:17;;;;;;;4.72;2.70;;;;;;;;;;4835835;29;20044;-76
2021/11/05 00:52:43;;;;;;;4.78;2.47;;;;;;;;;;4852156;29;20034;-75
2021/11/05 00:55:09;;;;;;;5.20;2.92;;;;;;;;;;4852275;29;20178;-75
2021/11/05 00:57:35;;;;;;;5.47;2.95;;;;;;;;;;4835475;29;20042;-77
2021/11/05 01:00:01;;;;;;;4.82;2.78;;;;;;;;;;4852405;29;20034;-77
2021/11/05 01:02:26;;;;;;;5.00;2.88;;;;;;;;;;4835610;29;20038;-79
2021/11/05 01:04:53;;;;;;;4.78;2.35;;;;;;;;;;4852117;29;20445;-79
2021/11/05 01:07:18;;;;;;;5.68;2.80;;;;;;;;;;4852098;29;20042;-80
2021/11/05 01:09:43;;;;;;;5.05;2.70;;;;;;;;;;4851877;29;20063;-78
2021/11/05 01:12:09;;;;;;;6.28;2.70;;;;;;;;;;4835116;29;20037;-78
2021/11/05 01:14:34;;;;;;;6.32;3.13;;;;;;;;;;4835699;29;20041;-78
2021/11/05 01:17:00;;;;;;;5.50;3.00;;;;;;;;;;4851840;29;20125;-78
2021/11/05 01:19:27;;;;;;;5.88;3.30;;;;;;;;;;4852399;29;20033;-77
2021/11/05 01:21:52;;;;;;;7.65;3.63;;;;;;;;;;4851481;29;20062;-78
2021/11/05 01:24:18;;;;;;;5.72;3.40;;;;;;;;;;4852221;29;20037;-78
2021/11/05 01:26:43;;;;;;;7.03;3.70;;;;;;;;;;4851806;29;20078;-76
2021/11/05 01:29:09;;;;;;;8.05;3.70;;;;;;;;;;4851425;29;20065;-75
2021/11/05 01:31:34;;;;;;;7.13;4.15;;;;;;;;;;4835485;29;20045;-75
2021/11/05 01:34:04;;;;;;;6.65;4.75;;;;;;;;;;4851971;29;20037;-78
2021/11/05 01:36:29;;;;;;;6.30;4.55;;;;;;;;;;4835662;29;20030;-76
2021/11/05 01:38:55;;;;;;;8.52;5.25;;;;;;;;;;4851924;29;20530;-76
2021/11/05 01:41:20;;;;;;;7.55;5.35;;;;;;;;;;4851928;29;20034;-76
2021/11/05 01:43:47;;;;;;;7.90;4.63;;;;;;;;;;4834987;29;20034;-76
2021/11/05 01:46:12;;;;;;;9.52;5.03;;;;;;;;;;4834958;29;20026;-77
2021/11/05 01:48:38;;;;;;;9.80;5.55;;;;;;;;;;4851858;29;20113;-76
2021/11/05 01:51:04;;;;;;;9.07;5.50;;;;;;;;;;4851886;29;20034;-77
2021/11/05 01:53:29;;;;;;;9.07;5.40;;;;;;;;;;4835355;29;20044;-76
2021/11/05 01:55:55;;;;;;;9.88;4.90;;;;;;;;;;4835372;29;20041;-76
2021/11/05 01:58:21;;;;;;;8.45;5.05;;;;;;;;;;4834780;29;20107;-76
2021/11/05 02:00:47;;;;;;;7.63;5.20;;;;;;;;;;4852035;29;20118;-77
2021/11/05 02:03:14;;;;;;;7.38;4.80;;;;;;;;;;4835832;29;20030;-78
2021/11/05 02:05:39;;;;;;;8.68;4.47;;;;;;;;;;4838186;29;20067;-77
2021/11/05 02:08:05;;;;;;;9.23;5.10;;;;;;;;;;4838214;29;20034;-78
2021/11/05 02:10:31;;;;;;;7.15;4.50;;;;;;;;;;4855041;29;20045;-76
2021/11/05 02:12:57;;;;;;;7.15;4.88;;;;;;;;;;4854197;29;20038;-76
2021/11/05 02:15:23;;;;;;;6.30;4.00;;;;;;;;;;4855187;29;20085;-76
2021/11/05 02:17:49;;;;;;;8.45;4.70;;;;;;;;;;4854414;29;20067;-76
2021/11/05 02:20:19;;;;;;;7.50;4.30;;;;;;;;;;4838023;29;20034;-77
2021/11/05 02:22:44;;;;;;;7.57;4.13;;;;;;;;;;4854529;29;20094;-78
2021/11/05 02:25:10;;;;;;;7.60;4.20;;;;;;;;;;4854103;29;20061;-77
2021/11/05 02:27:36;;;;;;;6.72;3.67;;;;;;;;;;4854154;29;20161;-78
2021/11/05 02:30:04;;;;;;;5.85;3.60;;;;;;;;;;4854376;29;20169;-76
2021/11/05 02:32:30;;;;;;;6.70;3.88;;;;;;;;;;4837402;29;20033;-77
2021/11/05 02:34:55;;;;;;;6.28;3.97;;;;;;;;;;4837100;29;20042;-77
2021/11/05 02:37:24;;;;;;;6.25;3.78;;;;;;;;;;4837047;29;20042;-78
2021/11/05 02:39:50;;;;;;;5.43;3.50;;;;;;;;;;4837678;29;20060;-78
2021/11/05 02:42:16;;;;;;;7.60;3.58;;;;;;;;;;4836873;29;20030;-77
2021/11/05 02:44:41;;;;;;;6.32;3.72;;;;;;;;;;4854488;29;20483;-78
2021/11/05 02:47:24;;;;;;;8.05;4.45;;;;;;;;;;4837204;29;20026;-79
2021/11/05 02:49:50;;;;;;;7.47;4.38;;;;;;;;;;4853528;29;20030;-79
2021/11/05 02:52:15;;;;;;;8.05;4.55;;;;;;;;;;4853449;29;20038;-78
2021/11/05 02:54:41;;;;;;;7.47;4.18;;;;;;;;;;4836815;29;20041;-80
2021/11/05 02:57:08;;;;;;;9.02;4.07;;;;;;;;;;4854024;29;20286;-78
2021/11/05 02:59:34;;;;;;;5.93;3.38;;;;;;;;;;4853802;29;20472;-79
2021/11/05 03:01:59;;;;;;;7.65;4.13;;;;;;;;;;4853844;29;20062;-78
2021/11/05 03:04:25;;;;;;;7.03;4.07;;;;;;;;;;4854087;29;20030;-78
2021/11/05 03:06:50;;;;;;;6.53;4.35;;;;;;;;;;4853836;29;20030;-78
2021/11/05 03:09:18;;;;;;;7.78;4.80;;;;;;;;;;4853941;29;20042;-78
2021/11/05 03:11:46;;;;;;;9.23;5.10;;;;;;;;;;4854122;29;20062;-78
2021/11/05 03:14:12;;;;;;;8.18;5.07;;;;;;;;;;4836107;29;20034;-77
2021/11/05 03:16:39;;;;;;;8.05;4.82;;;;;;;;;;4836869;29;20066;-78
2021/11/05 03:19:06;;;;;;;8.05;5.03;;;;;;;;;;4853789;29;20069;-78
2021/11/05 03:21:31;;;;;;;7.28;4.65;;;;;;;;;;4853452;29;20034;-78
2021/11/05 03:23:57;;;;;;;9.50;5.00;;;;;;;;;;4836669;29;20499;-80
2021/11/05 03:26:23;;;;;;;8.35;4.80;;;;;;;;;;4853811;29;20034;-77
2021/11/05 03:28:49;;;;;;;8.18;4.63;;;;;;;;;;4852591;29;20097;-78
2021/11/05 03:31:15;;;;;;;8.45;4.57;;;;;;;;;;4836605;29;20086;-77
2021/11/05 03:33:40;;;;;;;6.72;3.78;;;;;;;;;;4836791;29;20040;-79
2021/11/05 03:36:06;;;;;;;5.40;2.78;;;;;;;;;;4836860;29;20049;-78
2021/11/05 03:38:31;;;;;;;4.07;1.98;;;;;;;;;;4837187;29;20121;-79
2021/11/05 03:40:56;;;;;;;3.53;2.00;;;;;;;;;;4853183;29;20038;-80
2021/11/05 03:43:22;;;;;;;4.30;1.80;;;;;;;;;;4836332;29;20034;-80
2021/11/05 03:45:47;;;;;;;2.67;1.30;;;;;;;;;;4836907;29;20377;-78
2021/11/05 03:48:13;;;;;;;2.70;1.80;;;;;;;;;;4853049;29;20040;-77
2021/11/05 03:50:38;;;;;;;2.22;1.35;;;;;;;;;;4853180;29;20124;-77
2021/11/05 03:53:04;;;;;;;2.25;1.20;;;;;;;;;;4836267;29;20034;-78
2021/11/05 03:55:29;;;;;;;2.80;1.45;;;;;;;;;;4853045;29;20034;-80
2021/11/05 03:57:55;;;;;;;3.15;1.55;;;;;;;;;;4852836;29;20065;-78
2021/11/05 04:00:21;;;;;;;3.25;1.55;;;;;;;;;;4836721;29;20524;-79
2021/11/05 04:02:47;;;;;;;1.30;0.90;;;;;;;;;;4852412;29;20632;-77
2021/11/05 04:05:13;;;;;;;1.48;1.00;;;;;;;;;;4837051;29;20055;-79
2021/11/05 04:07:38;;;;;;;1.98;0.98;;;;;;;;;;4835797;29;20122;-80
2021/11/05 04:10:05;;;;;;;1.40;1.02;;;;;;;;;;4836797;29;20070;-80
2021/11/05 04:12:30;;;;;;;2.08;1.17;;;;;;;;;;4853499;29;20065;-82
2021/11/05 04:14:56;;;;;;;2.95;1.10;;;;;;;;;;4836952;29;20041;-81
2021/11/05 04:17:22;;;;;;;1.50;1.00;;;;;;;;;;4853407;29;20040;-81
2021/11/05 04:19:47;;;;;;;2.35;1.60;;;;;;;;;;4853196;29;20092;-79
2021/11/05 04:22:12;;;;;;;1.60;1.20;;;;;;;;;;4853366;29;20046;-77
2021/11/05 04:24:38;;;;;;;2.95;1.23;;;;;;;;;;4836934;29;20061;-82
2021/11/05 04:27:05;;;;;;;1.73;1.10;;;;;;;;;;4836363;29;20064;-82
2021/11/05 04:29:31;;;;;;;2.42;1.20;;;;;;;;;;4836474;29;20105;-82
2021/11/05 04:31:57;;;;;;;1.67;0.90;;;;;;;;;;4852721;29;20038;-79
2021/11/05 04:34:23;;;;;;;1.45;0.95;;;;;;;;;;4853296;29;20030;-79
2021/11/05 04:36:48;;;;;;;2.05;1.27;;;;;;;;;;4834733;29;20052;-80
2021/11/05 04:39:17;;;;;;;2.30;1.38;;;;;;;;;;4835055;29;20034;-77
2021/11/05 04:41:43;;;;;;;1.70;1.15;;;;;;;;;;4836441;29;20129;-80
2021/11/05 04:44:09;;;;;;;1.60;1.00;;;;;;;;;;4835775;29;20054;-80
2021/11/05 04:46:34;;;;;;;0.90;0.80;;;;;;;;;;4836308;29;20038;-76
2021/11/05 04:49:00;;;;;;;1.73;1.08;;;;;;;;;;4836263;29;20102;-78
2021/11/05 04:51:26;;;;;;;2.10;1.13;;;;;;;;;;4852757;29;20068;-80
2021/11/05 04:53:51;;;;;;;2.75;1.27;;;;;;;;;;4835985;29;20480;-82
2021/11/05 04:56:17;;;;;;;1.65;1.10;;;;;;;;;;4836264;29;20464;-77
2021/11/05 04:58:43;;;;;;;1.80;1.20;;;;;;;;;;4836281;29;20138;-79
2021/11/05 05:01:09;;;;;;;1.55;1.08;;;;;;;;;;4835657;29;20034;-80
2021/11/05 05:03:35;;;;;;;2.08;1.05;;;;;;;;;;4836408;29;20030;-80
2021/11/05 05:06:01;;;;;;;1.65;1.20;;;;;;;;;;4852251;29;20034;-77
2021/11/05 05:08:26;;;;;;;1.67;1.23;;;;;;;;;;4851481;29;20037;-79
2021/11/05 05:10:52;;;;;;;1.90;1.20;;;;;;;;;;4835040;29;20034;-82
2021/11/05 05:13:17;;;;;;;3.22;1.20;;;;;;;;;;4835262;29;20042;-78
2021/11/05 05:15:43;;;;;;;1.83;1.10;;;;;;;;;;4852294;29;20116;-81
2021/11/05 05:18:09;;;;;;;2.75;1.27;;;;;;;;;;4835279;29;20067;-82
2021/11/05 05:20:35;;;;;;;2.38;1.20;;;;;;;;;;4834463;29;20055;-83
2021/11/05 05:23:00;;;;;;;3.05;1.40;;;;;;;;;;4851761;29;20130;-81
2021/11/05 05:25:25;;;;;;;2.67;1.20;;;;;;;;;;4851975;29;20034;-80
2021/11/05 05:27:51;;;;;;;1.75;1.17;;;;;;;;;;4835333;29;20038;-82
2021/11/05 05:30:18;;;;;;;2.20;1.15;;;;;;;;;;4852057;29;20070;-81
2021/11/05 05:32:46;;;;;;;4.28;1.42;;;;;;;;;;4852113;29;20033;-77
2021/11/05 05:35:13;;;;;;;3.45;1.38;;;;;;;;;;4834968;29;20030;-81
2021/11/05 05:37:39;;;;;;;2.65;1.15;;;;;;;;;;4853436;29;20034;-81
2021/11/05 05:40:06;;;;;;;2.22;1.38;;;;;;;;;;4855631;29;20036;-82
2021/11/05 05:42:32;;;;;;;2.47;1.20;;;;;;;;;;4838368;29;20507;-82
2021/11/05 05:44:57;;;;;;;3.92;1.20;;;;;;;;;;4855028;29;20041;-81
2021/11/05 05:47:23;;;;;;;2.35;1.13;;;;;;;;;;4855140;29;20062;-82
2021/11/05 05:49:49;;;;;;;3.08;1.38;;;;;;;;;;4839130;29;20041;-80
2021/11/05 05:52:15;;;;;;;3.05;1.30;;;;;;;;;;4838476;29;20034;-79
2021/11/05 05:54:41;;;;;;;2.20;1.30;;;;;;;;;;4838944;29;20045;-81
2021/11/05 05:57:06;;;;;;;4.18;1.23;;;;;;;;;;4855034;29;20038;-79
2021/11/05 05:59:32;;;;;;;2.70;1.35;;;;;;;;;;4838865;29;20029;-82
2021/11/05 06:01:57;;;;;;;1.70;1.00;;;;;;;;;;4855138;29;20041;-82
2021/11/05 06:04:25;;;;;;;2.35;1.00;;;;;;;;;;4853410;29;20126;-82
2021/11/05 06:06:51;;;;;;;2.00;1.10;;;;;;;;;;4854507;29;20030;-78
2021/11/05 06:09:16;;;;;;;3.95;1.40;;;;;;;;;;4854518;29;20030;-79
2021/11/05 06:11:44;;;;;;;3.40;1.27;;;;;;;;;;4838274;29;20029;-80
2021/11/05 06:14:12;;;;;;;3.03;1.02;;;;;;;;;;4837758;29;20022;-83
2021/11/05 06:16:38;;;;;;;3.42;1.30;;;;;;;;;;4854818;29;20030;-78
2021/11/05 06:19:03;;;;;;;3.50;1.30;;;;;;;;;;4854758;29;20049;-83
2021/11/05 06:21:28;;;;;;;3.15;1.40;;;;;;;;;;4838273;29;20033;-79
2021/11/05 06:23:55;;;;;;;4.97;1.35;;;;;;;;;;4837860;29;20041;-80
2021/11/05 06:26:21;;;;;;;3.90;1.30;;;;;;;;;;4854570;29;20037;-83
2021/11/05 06:28:47;;;;;;;3.55;1.50;;;;;;;;;;4854415;29;20090;-80
2021/11/05 06:31:12;;;;;;;2.90;1.60;;;;;;;;;;4836180;29;20076;-84
2021/11/05 06:33:38;;;;;;;3.97;1.40;;;;;;;;;;4819501;29;20066;-83
2021/11/05 06:36:03;;;;;;;2.47;1.50;;;;;;;;;;4819653;29;20031;-78
2021/11/05 06:38:29;;;;;;;4.93;1.38;;;;;;;;;;4836010;29;20039;-82
2021/11/05 06:40:54;;;;;;;5.10;1.40;;;;;;;;;;4836210;29;20041;-83
2021/11/05 06:43:21;;;;;;;5.13;1.48;;;;;;;;;;4819692;29;20034;-83
2021/11/05 06:45:46;;;;;;;4.78;1.40;;;;;;;;;;4819790;29;20038;-84
2021/11/05 06:48:12;;;;;;;3.35;1.30;;;;;;;;;;4819494;29;20037;-82
2021/11/05 06:50:40;;;;;;;4.00;1.48;;;;;;;;;;4819314;29;20030;-84
2021/11/05 06:53:06;;;;;;;2.65;1.10;;;;;;;;;;4819151;29;20038;-81
2021/11/05 06:55:31;;;;;;;4.10;1.20;;;;;;;;;;4819607;29;20039;-84
2021/11/05 06:57:56;;;;;;;5.50;1.48;;;;;;;;;;4835680;29;20102;-81
2021/11/05 07:00:22;;;;;;;4.47;1.30;;;;;;;;;;4819621;29;20507;-79
2021/11/05 07:02:47;;;;;;;1.77;1.13;;;;;;;;;;4835400;29;20049;-82
2021/11/05 07:05:15;;;;;;;4.35;1.50;;;;;;;;;;4835872;29;20403;-81
2021/11/05 07:07:41;;;;;;;4.10;1.60;;;;;;;;;;4836123;29;20038;-83
2021/11/05 07:10:08;;;;;;;3.40;1.20;;;;;;;;;;4835597;29;20034;-82
2021/11/05 07:12:34;;;;;;;4.25;1.30;;;;;;;;;;4835476;29;20034;-82
2021/11/05 07:14:59;;;;;;;3.10;1.20;;;;;;;;;;4835529;29;20063;-81
2021/11/05 07:17:25;;;;;;;2.70;1.52;;;;;;;;;;4818896;29;20038;-83
2021/11/05 07:19:50;;;;;;;3.67;1.50;;;;;;;;;;4819490;29;20044;-85
2021/11/05 07:22:17;;;;;;;2.80;1.10;;;;;;;;;;4835588;29;20074;-81
2021/11/05 07:24:43;;;;;;;4.50;1.40;;;;;;;;;;4835725;29;20030;-83
2021/11/05 07:27:10;;;;;;;4.25;1.23;;;;;;;;;;4835403;29;20038;-82
2021/11/05 07:29:35;;;;;;;2.42;1.30;;;;;;;;;;4825066;29;20046;-79
2021/11/05 07:32:03;;;;;;;1.95;1.20;;;;;;;;;;4853702;29;20061;-86
2021/11/05 07:34:32;;;;;;;6.18;1.85;;;;;;;;;;4837359;29;20038;-85
2021/11/05 07:37:03;;;;;;;4.10;1.52;;;;;;;;;;4836923;29;20037;-84
2021/11/05 07:39:29;;;;;;;3.13;1.80;;;;;;;;;;4837021;29;20143;-83
2021/11/05 07:41:55;;;;;;;6.22;1.92;;;;;;;;;;4836763;29;20079;-85
2021/11/05 07:44:20;;;;;;;4.03;1.90;;;;;;;;;;4837006;29;20033;-87
2021/11/05 07:46:47;;;;;;;6.78;2.83;;;;;;;;;;4853112;29;20066;-85
2021/11/05 07:49:13;;;;;;;9.38;2.40;;;;;;;;;;4853143;29;20026;-84
2021/11/05 07:51:38;;;;;;;6.35;2.70;;;;;;;;;;4836955;29;20030;-85
2021/11/05 07:54:04;;;;;;;4.22;2.58;;;;;;;;;;4836591;29;20038;-82
2021/11/05 07:56:29;;;;;;;5.00;2.70;;;;;;;;;;4836844;29;20710;-83
2021/11/05 07:58:55;;;;;;;7.05;3.03;;;;;;;;;;4853107;29;20030;-84
2021/11/05 08:01:22;;;;;;;6.07;2.85;;;;;;;;;;4836000;29;20102;-87
2021/11/05 08:03:47;;;;;;;13.68;3.15;;;;;;;;;;4853162;29;20093;-86
2021/11/05 08:06:13;;;;;;;5.50;2.78;;;;;;;;;;4836564;29;20054;-80
2021/11/05 08:08:38;;;;;;;6.05;2.88;;;;;;;;;;4852897;29;20049;-81
2021/11/05 08:11:04;;;;;;;7.38;2.80;;;;;;;;;;4853346;29;20038;-84
2021/11/05 08:13:29;;;;;;;7.28;3.38;;;;;;;;;;4852936;29;20026;-81
2021/11/05 08:15:55;;;;;;;7.35;3.13;;;;;;;;;;4835683;29;20628;-85
2021/11/05 08:18:21;;;;;;;6.97;2.92;;;;;;;;;;4852585;29;20030;-86
2021/11/05 08:20:47;;;;;;;12.60;3.72;;;;;;;;;;4851357;29;20034;-84
2021/11/05 08:23:12;;;;;;;5.78;2.80;;;;;;;;;;4836007;29;20033;-84
2021/11/05 08:25:38;;;;;;;5.63;3.15;;;;;;;;;;4853114;29;20034;-84
2021/11/05 08:28:04;;;;;;;7.13;3.20;;;;;;;;;;4852647;29;20053;-85
2021/11/05 08:30:30;;;;;;;5.72;3.03;;;;;;;;;;4836176;29;20078;-84
2021/11/05 08:32:59;;;;;;;7.13;2.97;;;;;;;;;;4835637;29;20033;-87
2021/11/05 08:35:26;;;;;;;4.68;2.83;;;;;;;;;;4852340;29;20038;-86
2021/11/05 08:37:53;;;;;;;7.65;3.90;;;;;;;;;;4836259;29;20036;-82
2021/11/05 08:40:19;;;;;;;6.18;3.50;;;;;;;;;;4836389;29;20045;-80
2021/11/05 08:42:45;;;;;;;6.15;3.05;;;;;;;;;;4836034;29;20094;-80
2021/11/05 08:45:11;;;;;;;5.63;3.00;;;;;;;;;;4852930;29;20078;-85
2021/11/05 08:47:38;;;;;;;4.25;2.90;;;;;;;;;;4852754;29;20063;-85
2021/11/05 08:50:25;;;;;;;4.03;2.70;;;;;;;;;;4836672;29;20036;-79
2021/11/05 08:52:51;;;;;;;5.45;3.10;;;;;;;;;;4852480;29;20034;-86
2021/11/05 08:55:17;;;;;;;6.63;2.97;;;;;;;;;;4836219;29;20033;-85
2021/11/05 08:57:43;;;;;;;5.57;2.90;;;;;;;;;;4852228;29;20121;-79
2021/11/05 09:00:13;;;;;;;7.55;3.67;;;;;;;;;;4852831;29;20097;-82
2021/11/05 09:02:40;;;;;;;6.88;3.17;;;;;;;;;;4852519;29;20280;-86
2021/11/05 09:05:05;;;;;;;6.63;3.33;;;;;;;;;;4852344;29;20034;-85
2021/11/05 09:07:31;;;;;;;6.40;3.08;;;;;;;;;;4835961;29;20065;-82
2021/11/05 09:09:56;;;;;;;4.07;3.28;;;;;;;;;;4852461;29;20034;-80
2021/11/05 09:12:22;;;;;;;6.22;3.13;;;;;;;;;;4837415;29;20027;-85
2021/11/05 09:14:48;;;;;;;5.25;2.80;;;;;;;;;;4839643;29;20030;-84
2021/11/05 09:17:13;;;;;;;5.32;3.08;;;;;;;;;;4839473;29;20034;-83
2021/11/05 09:19:39;;;;;;;7.22;3.40;;;;;;;;;;4839587;29;20026;-83
2021/11/05 09:22:04;;;;;;;9.73;3.42;;;;;;;;;;4839575;29;20125;-78
2021/11/05 09:24:31;;;;;;;11.85;4.00;;;;;;;;;;4855837;29;20026;-83
2021/11/05 09:26:56;;;;;;;5.97;3.58;;;;;;;;;;4855980;29;20041;-81
2021/11/05 09:29:22;;;;;;;6.65;3.30;;;;;;;;;;4855600;29;20062;-84
2021/11/05 09:31:47;;;;;;;5.85;3.22;;;;;;;;;;4839425;29;20037;-80
2021/11/05 09:34:13;;;;;;;6.45;3.13;;;;;;;;;;4856192;29;20041;-84
2021/11/05 09:36:38;;;;;;;7.60;2.97;;;;;;;;;;4838957;29;20496;-79
2021/11/05 09:39:05;;;;;;;8.02;2.70;;;;;;;;;;4855750;29;20038;-81
2021/11/05 09:41:30;;;;;;;4.05;2.55;;;;;;;;;;4856167;29;20037;-83
2021/11/05 09:43:56;;;;;;;5.03;2.50;;;;;;;;;;4855888;29;20070;-85
2021/11/05 09:46:21;;;;;;;7.38;2.20;;;;;;;;;;4855890;29;20048;-84
2021/11/05 09:48:48;;;;;;;6.75;2.17;;;;;;;;;;4855489;29;20034;-88
2021/11/05 09:51:14;;;;;;;8.18;2.45;;;;;;;;;;4839089;29;20063;-85
2021/11/05 09:53:39;;;;;;;3.72;2.10;;;;;;;;;;4855441;29;20038;-84
2021/11/05 09:56:09;;;;;;;2.90;1.75;;;;;;;;;;4838373;29;20068;-82
2021/11/05 09:58:38;;;;;;;7.32;1.90;;;;;;;;;;4855591;29;20037;-82
2021/11/05 10:01:05;;;;;;;7.57;2.45;;;;;;;;;;4855483;29;20049;-84
2021/11/05 10:03:32;;;;;;;7.05;1.92;;;;;;;;;;4855296;29;20034;-84
2021/11/05 10:05:57;;;;;;;3.42;1.73;;;;;;;;;;4838636;29;20098;-83
2021/11/05 10:08:31;;;;;;;4.13;1.38;;;;;;;;;;4838314;29;20049;-86
2021/11/05 10:11:01;;;;;;;3.63;1.98;;;;;;;;;;4855569;29;20059;-86
2021/11/05 10:13:27;;;;;;;3.58;1.45;;;;;;;;;;4838494;29;20075;-87
2021/11/05 10:15:56;;;;;;;4.03;1.52;;;;;;;;;;4855401;29;20049;-83
2021/11/05 10:18:30;;;;;;;2.58;1.30;;;;;;;;;;4838180;29;20034;-87
2021/11/05 10:21:10;;;;;;;4.00;1.42;;;;;;;;;;4838142;29;20102;-86
2021/11/05 10:23:39;;;;;;;7.50;1.90;;;;;;;;;;4853984;29;20034;-83
2021/11/05 10:26:18;;;;;;;3.63;1.63;;;;;;;;;;4855129;29;20046;-84
2021/11/05 10:28:43;;;;;;;3.03;1.52;;;;;;;;;;4854642;29;20042;-84
2021/11/05 10:31:10;;;;;;;3.85;1.48;;;;;;;;;;4855101;29;20144;-82
2021/11/05 10:33:45;;;;;;;3.35;1.65;;;;;;;;;;4854711;29;20034;-80
2021/11/05 10:36:14;;;;;;;3.45;1.60;;;;;;;;;;4838355;29;20403;-86
2021/11/05 10:39:01;;;;;;;4.75;1.23;;;;;;;;;;4837844;29;20063;-84
2021/11/05 10:41:29;;;;;;;1.52;1.10;;;;;;;;;;4854981;29;20022;-80
2021/11/05 10:44:00;;;;;;;2.92;1.20;;;;;;;;;;4838096;29;20381;-81
2021/11/05 10:46:33;;;;;;;4.03;1.30;;;;;;;;;;4854779;29;20030;-82
2021/11/05 10:49:02;;;;;;;2.90;1.30;;;;;;;;;;4854457;29;20053;-85
2021/11/05 10:51:30;;;;;;;2.08;0.90;;;;;;;;;;4838078;29;20276;-80
2021/11/05 10:53:57;;;;;;;2.58;0.95;;;;;;;;;;4837770;29;20034;-85
2021/11/05 10:56:24;;;;;;;4.57;1.15;;;;;;;;;;4837574;29;20403;-80
2021/11/05 10:58:50;;;;;;;2.00;1.52;;;;;;;;;;4837807;29;20038;-80
2021/11/05 11:01:17;;;;;;;3.45;1.00;;;;;;;;;;4837845;29;20045;-82
2021/11/05 11:04:00;;;;;;;4.13;1.02;;;;;;;;;;4837337;29;20058;-82
2021/11/05 11:06:30;;;;;;;2.70;1.00;;;;;;;;;;4837764;29;20131;-80
2021/11/05 11:09:03;;;;;;;1.80;1.00;;;;;;;;;;4837480;29;20042;-78
2021/11/05 11:11:37;;;;;;;2.08;0.80;;;;;;;;;;4854245;29;20044;-80
2021/11/05 11:14:05;;;;;;;1.52;0.95;;;;;;;;;;4837453;29;20038;-81
2021/11/05 11:16:33;;;;;;;1.45;0.85;;;;;;;;;;4837437;29;20034;-82
2021/11/05 11:19:02;;;;;;;1.40;0.75;;;;;;;;;;4837423;29;20074;-81
2021/11/05 11:21:50;;;;;;;3.47;1.00;;;;;;;;;;4837501;29;20033;-80
2021/11/05 11:24:22;;;;;;;1.73;0.95;;;;;;;;;;4837525;29;20037;-79
2021/11/05 11:26:50;;;;;;;1.17;0.80;;;;;;;;;;4853666;29;20494;-79
2021/11/05 11:29:22;;;;;;;1.55;0.90;;;;;;;;;;4853165;29;20085;-81
2021/11/05 11:31:49;;;;;;;1.83;0.90;;;;;;;;;;4837099;29;20290;-80
2021/11/05 11:34:15;;;;;;;3.65;0.80;;;;;;;;;;4837105;29;20030;-79
2021/11/05 11:36:47;;;;;;;1.25;0.90;;;;;;;;;;4836769;29;20087;-80
2021/11/05 11:39:19;;;;;;;3.50;0.70;;;;;;;;;;4853578;29;20064;-81
2021/11/05 11:41:47;;;;;;;2.78;0.77;;;;;;;;;;4836934;29;20054;-78
2021/11/05 11:44:15;;;;;;;1.25;0.75;;;;;;;;;;4836825;29;20038;-78
2021/11/05 11:47:05;;;;;;;1.92;0.90;;;;;;;;;;4853166;29;20048;-81
2021/11/05 11:49:51;;;;;;;2.25;0.95;;;;;;;;;;4853435;29;20029;-79
2021/11/05 11:52:19;;;;;;;1.33;0.75;;;;;;;;;;4836184;29;20042;-79
2021/11/05 11:54:47;;;;;;;1.95;0.80;;;;;;;;;;4836900;29;20094;-78
2021/11/05 11:57:24;;;;;;;2.15;0.70;;;;;;;;;;4852994;29;20368;-78
2021/11/05 12:00:10;;;;;;;1.08;0.80;;;;;;;;;;4853380;29;20048;-78
2021/11/05 12:02:41;;;;;;;1.63;0.75;;;;;;;;;;4836723;29;20050;-78
2021/11/05 12:05:21;;;;;;;3.17;0.60;;;;;;;;;;4853386;29;20049;-80
2021/11/05 12:08:34;;;;;;;0.70;0.68;;;;;;;;;;4836816;29;20038;-78
2021/11/05 12:11:17;;;;;;;2.28;0.80;;;;;;;;;;4836660;29;20029;-79
2021/11/05 12:13:44;;;;;;;2.15;0.82;;;;;;;;;;4852846;29;20025;-78
2021/11/05 12:16:09;;;;;;;1.30;0.60;;;;;;;;;;4853280;29;20118;-78
2021/11/05 12:18:57;;;;;;;1.75;0.70;;;;;;;;;;4836290;29;20034;-79
2021/11/05 12:21:38;;;;;;;0.70;0.52;;;;;;;;;;4836805;29;20125;-75
2021/11/05 12:24:27;;;;;;;0.65;0.50;;;;;;;;;;4835986;29;20030;-79
2021/11/05 12:27:01;;;;;;;0.70;0.60;;;;;;;;;;4836098;29;20037;-78
2021/11/05 12:29:37;;;;;;;0.50;0.50;;;;;;;;;;4852865;29;20085;-77
2021/11/05 12:32:17;;;;;;;0.70;0.50;;;;;;;;;;4852867;29;20034;-77
2021/11/05 12:34:55;;;;;;;1.02;0.50;;;;;;;;;;4852902;29;20030;-78
2021/11/05 12:37:32;;;;;;;1.75;0.50;;;;;;;;;;4836294;29;20034;-79
2021/11/05 12:40:30;;;;;;;1.23;0.45;;;;;;;;;;4836265;29;20041;-77
2021/11/05 12:42:58;;;;;;;0.95;0.55;;;;;;;;;;4835887;29;20026;-79
2021/11/05 12:45:51;;;;;;;1.33;0.70;;;;;;;;;;4836583;29;20033;-78
2021/11/05 12:48:38;;;;;;;1.23;0.52;;;;;;;;;;4852057;29;20037;-79
2021/11/05 12:51:09;;;;;;;0.90;0.45;;;;;;;;;;4836010;29;20077;-79
2021/11/05 12:53:35;;;;;;;2.08;0.50;;;;;;;;;;4835931;29;20253;-76
2021/11/05 12:56:01;;;;;;;1.83;0.68;;;;;;;;;;4835647;29;20121;-79
2021/11/05 12:58:28;;;;;;;1.27;0.40;;;;;;;;;;4834907;29;20270;-77
2021/11/05 13:00:54;;;;;;;0.65;0.50;;;;;;;;;;4851758;29;20040;-78
2021/11/05 13:03:21;;;;;;;1.23;0.60;;;;;;;;;;4835429;29;20064;-78
2021/11/05 13:05:56;;;;;;;0.57;0.50;;;;;;;;;;4852225;29;20045;-78
2021/11/05 13:08:30;;;;;;;0.95;0.57;;;;;;;;;;4852085;29;20030;-79
2021/11/05 13:11:03;;;;;;;0.65;0.45;;;;;;;;;;4836212;29;20037;-79
2021/11/05 13:13:29;;;;;;;0.63;0.40;;;;;;;;;;4835726;29;20045;-78
2021/11/05 13:15:54;;;;;;;0.43;0.40;;;;;;;;;;4852073;29;20559;-77
2021/11/05 13:18:20;;;;;;;3.53;0.40;;;;;;;;;;4835559;29;20030;-78
2021/11/05 13:20:47;;;;;;;0.20;0.20;;;;;;;;;;4852251;29;20127;-79
2021/11/05 13:23:15;;;;;;;0.80;0.43;;;;;;;;;;4852175;29;20125;-77
2021/11/05 13:25:43;;;;;;;2.15;0.50;;;;;;;;;;4835679;29;20034;-80
2021/11/05 13:28:15;;;;;;;0.68;0.40;;;;;;;;;;4835622;29;20042;-80
2021/11/05 13:30:55;;;;;;;0.40;0.40;;;;;;;;;;4835409;29;20042;-81
2021/11/05 13:33:22;;;;;;;1.48;0.50;;;;;;;;;;4835325;29;20483;-78
2021/11/05 13:36:04;;;;;;;0.88;0.45;;;;;;;;;;4851913;29;20045;-79
2021/11/05 13:38:33;;;;;;;0.40;0.40;;;;;;;;;;4835305;29;20063;-79
2021/11/05 13:41:08;;;;;;;1.55;0.40;;;;;;;;;;4835713;29;20038;-80
2021/11/05 13:43:38;;;;;;;1.48;0.40;;;;;;;;;;4835081;29;20069;-78
2021/11/05 13:46:13;;;;;;;0.47;0.20;;;;;;;;;;4851949;29;20049;-80
2021/11/05 13:48:45;;;;;;;0.55;0.40;;;;;;;;;;4835433;29;20395;-77
2021/11/05 13:51:28;;;;;;;2.35;0.50;;;;;;;;;;4852232;29;20101;-80
2021/11/05 13:54:02;;;;;;;0.35;0.35;;;;;;;;;;4851736;29;20067;-77
2021/11/05 13:56:41;;;;;;;0.65;0.38;;;;;;;;;;4835468;29;20066;-76
2021/11/05 13:59:23;;;;;;;1.20;0.50;;;;;;;;;;4837219;29;20033;-75
2021/11/05 14:01:55;;;;;;;0.63;0.40;;;;;;;;;;4838507;29;20034;-79
2021/11/05 14:04:22;;;;;;;0.63;0.40;;;;;;;;;;4838349;29;20057;-80
2021/11/05 14:06:49;;;;;;;2.72;0.60;;;;;;;;;;4855049;29;20049;-77
2021/11/05 14:09:26;;;;;;;0.95;0.40;;;;;;;;;;4838155;29;20030;-79
2021/11/05 14:11:53;;;;;;;0.70;0.40;;;;;;;;;;4854662;29;20432;-78
2021/11/05 14:14:26;;;;;;;1.85;0.35;;;;;;;;;;4855025;29;20057;-78
2021/11/05 14:17:10;;;;;;;0.70;0.50;;;;;;;;;;4837907;29;20045;-76
2021/11/05 14:19:36;;;;;;;1.85;0.40;;;;;;;;;;4855110;29;20067;-78
2021/11/05 14:22:05;;;;;;;1.42;0.45;;;;;;;;;;4838146;29;20484;-77
2021/11/05 14:24:37;;;;;;;0.80;0.50;;;;;;;;;;4854913;29;20030;-77
2021/11/05 14:27:07;;;;;;;0.55;0.40;;;;;;;;;;4854448;29;20037;-77
2021/11/05 14:29:34;;;;;;;1.92;0.57;;;;;;;;;;4854178;29;20144;-75
2021/11/05 14:32:03;;;;;;;1.20;0.40;;;;;;;;;;4836937;29;20404;-76
2021/11/05 14:34:45;;;;;;;1.27;0.50;;;;;;;;;;4854408;29;20523;-75
2021/11/05 14:37:17;;;;;;;0.85;0.30;;;;;;;;;;4853767;29;20041;-76
2021/11/05 14:40:02;;;;;;;0.50;0.35;;;;;;;;;;4854670;29;20057;-75
2021/11/05 14:42:35;;;;;;;0.77;0.40;;;;;;;;;;4854512;29;20041;-75
2021/11/05 14:45:04;;;;;;;0.65;0.40;;;;;;;;;;4837871;29;20101;-74
2021/11/05 14:47:40;;;;;;;1.15;0.50;;;;;;;;;;4854244;29;20067;-75
2021/11/05 14:50:11;;;;;;;0.60;0.30;;;;;;;;;;4854626;29;20102;-78